createdAt,value
2017-02-16T00:00:12.948Z,17.78
2017-02-16T00:01:12.594Z,17.83
2017-02-16T00:02:12.497Z,17.78
2017-02-16T00:03:13.431Z,17.78
2017-02-16T00:04:13.214Z,17.78
2017-02-16T00:05:12.090Z,17.77
2017-02-16T00:06:12.101Z,17.77
2017-02-16T00:07:12.180Z,17.78
2017-02-16T00:08:14.859Z,17.78
2017-02-16T00:09:12.394Z,17.78
2017-02-16T00:10:13.703Z,17.78
2017-02-16T00:11:11.872Z,17.78
2017-02-16T00:12:12.718Z,17.79
2017-02-16T00:13:11.891Z,17.78
2017-02-16T00:14:11.977Z,17.78
2017-02-16T00:15:12.439Z,17.83
2017-02-16T00:16:12.531Z,17.78
2017-02-16T00:17:13.064Z,17.80
2017-02-16T00:18:12.304Z,17.78
2017-02-16T00:19:14.154Z,17.78
2017-02-16T00:20:12.721Z,17.81
2017-02-16T00:21:14.949Z,18.31
2017-02-16T00:22:11.909Z,18.37
2017-02-16T00:23:12.715Z,18.38
2017-02-16T00:24:12.755Z,18.40
2017-02-16T00:25:09.868Z,18.41
2017-02-16T00:26:12.067Z,18.43
2017-02-16T00:27:12.928Z,18.42
2017-02-16T00:28:12.754Z,18.43
2017-02-16T00:29:12.420Z,18.44
2017-02-16T00:30:12.700Z,18.42
2017-02-16T00:31:12.517Z,17.95
2017-02-16T00:32:13.146Z,17.84
2017-02-16T00:33:12.950Z,17.82
2017-02-16T00:34:10.542Z,17.80
2017-02-16T00:35:11.894Z,18.32
2017-02-16T00:36:13.688Z,18.37
2017-02-16T00:37:12.310Z,18.39
2017-02-16T00:38:12.323Z,18.41
2017-02-16T00:39:12.898Z,18.41
2017-02-16T00:40:17.570Z,18.41
2017-02-16T00:41:13.077Z,17.89
2017-02-16T00:42:13.931Z,17.83
2017-02-16T00:43:13.711Z,17.81
2017-02-16T00:44:12.283Z,17.83
2017-02-16T00:45:13.940Z,17.78
2017-02-16T00:46:11.767Z,17.78
2017-02-16T00:47:12.574Z,17.77
2017-02-16T00:48:12.496Z,17.77
2017-02-16T00:49:12.476Z,17.77
2017-02-16T00:50:13.120Z,17.78
2017-02-16T00:51:13.066Z,17.77
2017-02-16T00:52:12.122Z,17.77
2017-02-16T00:53:12.719Z,17.76
2017-02-16T00:54:12.560Z,17.77
2017-02-16T00:55:13.387Z,17.76
2017-02-16T00:56:12.457Z,17.76
2017-02-16T00:57:15.269Z,17.77
2017-02-16T00:59:11.462Z,17.76
2017-02-16T01:00:12.708Z,17.76
2017-02-16T01:01:12.354Z,17.76
2017-02-16T01:02:14.166Z,17.77
2017-02-16T01:03:15.126Z,17.76
2017-02-16T01:04:15.528Z,17.77
2017-02-16T01:05:12.909Z,17.77
2017-02-16T01:06:15.976Z,17.76
2017-02-16T01:07:13.339Z,17.77
2017-02-16T01:08:12.775Z,17.76
2017-02-16T01:09:13.435Z,17.76
2017-02-16T01:10:14.821Z,17.76
2017-02-16T01:11:13.939Z,17.76
2017-02-16T01:12:14.769Z,17.76
2017-02-16T01:13:12.496Z,17.76
2017-02-16T01:14:14.417Z,17.76
2017-02-16T01:15:14.283Z,17.76
2017-02-16T01:16:12.987Z,17.75
2017-02-16T01:17:12.387Z,17.76
2017-02-16T01:18:15.716Z,17.76
2017-02-16T01:19:11.751Z,17.75
2017-02-16T01:20:12.762Z,17.75
2017-02-16T01:21:14.313Z,17.75
2017-02-16T01:22:13.065Z,17.76
2017-02-16T01:23:13.653Z,17.76
2017-02-16T01:24:13.801Z,17.76
2017-02-16T01:25:13.407Z,17.78
2017-02-16T01:26:15.121Z,17.75
2017-02-16T01:27:15.526Z,17.76
2017-02-16T01:28:14.180Z,17.75
2017-02-16T01:29:12.766Z,17.80
2017-02-16T01:30:12.876Z,17.76
2017-02-16T01:31:12.497Z,17.81
2017-02-16T01:32:14.809Z,17.76
2017-02-16T01:33:12.116Z,17.76
2017-02-16T01:34:14.056Z,17.75
2017-02-16T01:35:12.828Z,17.75
2017-02-16T01:36:12.483Z,17.81
2017-02-16T01:37:12.278Z,17.78
2017-02-16T01:38:13.889Z,17.75
2017-02-16T01:39:13.054Z,17.76
2017-02-16T01:40:13.730Z,17.76
2017-02-16T01:41:12.274Z,17.76
2017-02-16T01:42:10.605Z,17.76
2017-02-16T01:43:12.685Z,17.76
2017-02-16T01:44:12.480Z,17.76
2017-02-16T01:45:13.899Z,17.76
2017-02-16T01:46:13.918Z,17.76
2017-02-16T01:47:12.807Z,17.76
2017-02-16T01:48:12.452Z,17.76
2017-02-16T01:49:13.399Z,17.76
2017-02-16T01:50:14.023Z,17.76
2017-02-16T01:51:12.703Z,17.76
2017-02-16T01:52:12.417Z,17.75
2017-02-16T01:53:14.148Z,17.76
2017-02-16T01:54:13.255Z,17.76
2017-02-16T01:55:14.627Z,17.76
2017-02-16T01:56:13.466Z,17.76
2017-02-16T01:57:14.018Z,17.76
2017-02-16T01:58:13.035Z,17.75
2017-02-16T01:59:13.881Z,17.76
2017-02-16T02:00:12.622Z,17.76
2017-02-16T02:01:12.939Z,17.76
2017-02-16T02:02:12.467Z,17.76
2017-02-16T02:03:13.253Z,17.76
2017-02-16T02:04:14.310Z,17.79
2017-02-16T02:05:13.860Z,18.29
2017-02-16T02:06:13.730Z,18.34
2017-02-16T02:07:13.446Z,18.37
2017-02-16T02:08:13.867Z,18.03
2017-02-16T02:09:12.456Z,17.86
2017-02-16T02:10:14.325Z,17.81
2017-02-16T02:11:13.134Z,17.78
2017-02-16T02:12:12.785Z,17.78
2017-02-16T02:13:12.296Z,17.77
2017-02-16T02:14:13.325Z,17.77
2017-02-16T02:15:14.941Z,17.76
2017-02-16T02:16:13.190Z,17.76
2017-02-16T02:17:13.192Z,17.76
2017-02-16T02:18:13.729Z,17.81
2017-02-16T02:19:13.710Z,17.76
2017-02-16T02:20:12.279Z,17.76
2017-02-16T02:21:11.889Z,17.76
2017-02-16T02:22:14.307Z,17.76
2017-02-16T02:23:13.847Z,17.76
2017-02-16T02:24:12.897Z,17.76
2017-02-16T02:25:13.675Z,17.76
2017-02-16T02:26:12.317Z,17.76
2017-02-16T02:27:13.238Z,17.76
2017-02-16T02:28:13.336Z,17.77
2017-02-16T02:29:13.362Z,17.76
2017-02-16T02:30:13.399Z,18.30
2017-02-16T02:31:13.379Z,18.00
2017-02-16T02:32:13.473Z,17.84
2017-02-16T02:33:14.278Z,17.80
2017-02-16T02:34:12.888Z,17.78
2017-02-16T02:35:13.730Z,17.77
2017-02-16T02:36:13.089Z,17.77
2017-02-16T02:37:13.843Z,17.76
2017-02-16T02:38:16.537Z,17.76
2017-02-16T02:39:12.684Z,17.76
2017-02-16T02:40:13.610Z,17.76
2017-02-16T02:41:12.723Z,17.76
2017-02-16T02:42:12.777Z,17.76
2017-02-16T02:43:13.563Z,17.75
2017-02-16T02:44:12.163Z,17.76
2017-02-16T02:45:12.710Z,17.76
2017-02-16T02:46:13.871Z,17.76
2017-02-16T02:47:12.708Z,17.95
2017-02-16T02:48:13.025Z,17.81
2017-02-16T02:49:12.303Z,17.78
2017-02-16T02:50:13.345Z,17.77
2017-02-16T02:51:13.144Z,17.77
2017-02-16T02:52:15.293Z,17.76
2017-02-16T02:53:13.062Z,17.76
2017-02-16T02:54:14.867Z,17.76
2017-02-16T02:55:12.498Z,17.76
2017-02-16T02:56:13.303Z,17.76
2017-02-16T02:57:15.268Z,17.76
2017-02-16T02:58:13.258Z,17.76
2017-02-16T02:59:12.702Z,17.76
2017-02-16T03:00:14.542Z,17.76
2017-02-16T03:01:14.551Z,17.75
2017-02-16T03:02:12.664Z,17.76
2017-02-16T03:03:12.350Z,17.75
2017-02-16T03:04:14.388Z,17.75
2017-02-16T03:05:13.420Z,17.76
2017-02-16T03:06:13.156Z,17.75
2017-02-16T03:07:13.514Z,17.76
2017-02-16T03:08:13.149Z,17.76
2017-02-16T03:09:13.204Z,17.76
2017-02-16T03:10:13.269Z,17.76
2017-02-16T03:11:13.042Z,17.77
2017-02-16T03:12:16.267Z,17.77
2017-02-16T03:13:13.493Z,17.76
2017-02-16T03:14:13.166Z,17.77
2017-02-16T03:15:13.878Z,17.77
2017-02-16T03:16:13.639Z,17.76
2017-02-16T03:17:13.824Z,17.77
2017-02-16T03:18:13.926Z,17.77
2017-02-16T03:19:11.670Z,17.76
2017-02-16T03:20:12.666Z,17.77
2017-02-16T03:21:12.957Z,17.76
2017-02-16T03:22:10.631Z,17.76
2017-02-16T03:23:14.776Z,17.77
2017-02-16T03:24:12.406Z,17.76
2017-02-16T03:25:13.773Z,17.77
2017-02-16T03:26:12.470Z,17.76
2017-02-16T03:27:13.386Z,17.76
2017-02-16T03:28:13.125Z,17.76
2017-02-16T03:29:13.394Z,17.77
2017-02-16T03:30:13.099Z,17.76
2017-02-16T03:31:13.817Z,17.76
2017-02-16T03:32:13.505Z,17.76
2017-02-16T03:33:15.407Z,17.76
2017-02-16T03:34:13.175Z,17.77
2017-02-16T03:35:13.302Z,17.78
2017-02-16T03:36:13.576Z,17.76
2017-02-16T03:37:12.394Z,17.77
2017-02-16T03:38:12.555Z,17.76
2017-02-16T03:39:12.226Z,17.76
2017-02-16T03:40:12.957Z,17.82
2017-02-16T03:41:13.046Z,17.76
2017-02-16T03:42:13.798Z,17.76
2017-02-16T03:43:12.939Z,17.77
2017-02-16T03:44:14.252Z,17.76
2017-02-16T03:45:14.744Z,17.76
2017-02-16T03:46:12.490Z,17.76
2017-02-16T03:47:13.313Z,17.76
2017-02-16T03:48:13.163Z,17.76
2017-02-16T03:49:14.928Z,17.76
2017-02-16T03:50:12.538Z,17.76
2017-02-16T03:51:12.565Z,17.76
2017-02-16T03:52:13.236Z,17.75
2017-02-16T03:53:14.078Z,17.76
2017-02-16T03:54:13.299Z,17.75
2017-02-16T03:55:12.504Z,17.75
2017-02-16T03:56:14.125Z,17.76
2017-02-16T03:57:12.936Z,17.76
2017-02-16T03:58:14.069Z,17.75
2017-02-16T03:59:12.836Z,17.75
2017-02-16T04:00:12.906Z,17.76
2017-02-16T04:01:13.201Z,17.75
2017-02-16T04:02:13.945Z,17.75
2017-02-16T04:03:13.206Z,17.75
2017-02-16T04:04:12.903Z,17.75
2017-02-16T04:05:12.637Z,17.75
2017-02-16T04:06:12.414Z,17.74
2017-02-16T04:07:14.007Z,17.75
2017-02-16T04:08:14.615Z,17.75
2017-02-16T04:09:12.458Z,17.80
2017-02-16T04:10:11.286Z,17.74
2017-02-16T04:11:13.425Z,17.80
2017-02-16T04:12:13.297Z,17.75
2017-02-16T04:13:13.954Z,17.74
2017-02-16T04:14:12.453Z,17.75
2017-02-16T04:15:13.670Z,17.74
2017-02-16T04:16:12.454Z,17.74
2017-02-16T04:17:13.349Z,17.75
2017-02-16T04:18:12.506Z,17.75
2017-02-16T04:19:13.126Z,17.75
2017-02-16T04:20:14.081Z,17.74
2017-02-16T04:21:14.133Z,17.75
2017-02-16T04:22:13.137Z,17.75
2017-02-16T04:23:13.876Z,17.75
2017-02-16T04:24:13.817Z,17.74
2017-02-16T04:25:12.945Z,17.75
2017-02-16T04:26:13.213Z,17.74
2017-02-16T04:27:12.460Z,17.74
2017-02-16T04:28:13.332Z,17.75
2017-02-16T04:29:13.092Z,17.74
2017-02-16T04:30:13.864Z,17.75
2017-02-16T04:31:13.788Z,17.75
2017-02-16T04:32:12.480Z,17.74
2017-02-16T04:33:13.180Z,17.74
2017-02-16T04:34:12.956Z,17.74
2017-02-16T04:35:12.935Z,17.76
2017-02-16T04:36:13.734Z,17.75
2017-02-16T04:37:12.673Z,17.75
2017-02-16T04:38:11.520Z,17.75
2017-02-16T04:39:13.308Z,17.74
2017-02-16T04:40:14.468Z,17.75
2017-02-16T04:41:16.136Z,17.75
2017-02-16T04:42:13.052Z,17.76
2017-02-16T04:43:13.051Z,17.76
2017-02-16T04:44:11.961Z,17.76
2017-02-16T04:45:12.615Z,17.76
2017-02-16T04:46:14.044Z,17.76
2017-02-16T04:47:12.697Z,17.76
2017-02-16T04:48:12.508Z,17.76
2017-02-16T04:49:13.599Z,17.76
2017-02-16T04:50:13.059Z,17.82
2017-02-16T04:51:12.253Z,17.76
2017-02-16T04:52:13.374Z,17.76
2017-02-16T04:53:14.064Z,17.83
2017-02-16T04:54:13.864Z,17.76
2017-02-16T04:55:13.586Z,17.77
2017-02-16T04:56:13.320Z,17.76
2017-02-16T04:57:13.866Z,17.76
2017-02-16T04:58:12.500Z,17.76
2017-02-16T04:59:15.212Z,17.76
2017-02-16T05:00:12.246Z,17.76
2017-02-16T05:01:14.028Z,17.76
2017-02-16T05:02:12.910Z,17.76
2017-02-16T05:03:13.847Z,17.76
2017-02-16T05:04:13.051Z,17.76
2017-02-16T05:05:13.440Z,17.76
2017-02-16T05:06:13.202Z,17.76
2017-02-16T05:07:12.735Z,17.77
2017-02-16T05:08:12.881Z,17.77
2017-02-16T05:09:12.090Z,17.77
2017-02-16T05:10:13.129Z,17.77
2017-02-16T05:11:13.294Z,17.76
2017-02-16T05:12:14.097Z,17.77
2017-02-16T05:13:14.710Z,17.77
2017-02-16T05:14:12.706Z,17.77
2017-02-16T05:15:12.759Z,17.76
2017-02-16T05:16:14.529Z,17.76
2017-02-16T05:17:14.234Z,17.77
2017-02-16T05:18:13.480Z,17.76
2017-02-16T05:19:12.431Z,17.76
2017-02-16T05:20:13.193Z,17.76
2017-02-16T05:21:12.179Z,17.75
2017-02-16T05:22:14.274Z,18.29
2017-02-16T05:23:13.605Z,17.82
2017-02-16T05:24:14.582Z,17.78
2017-02-16T05:25:17.594Z,17.78
2017-02-16T05:26:17.074Z,17.78
2017-02-16T05:27:14.361Z,17.77
2017-02-16T05:28:13.279Z,17.77
2017-02-16T05:29:12.476Z,17.77
2017-02-16T05:30:13.892Z,17.76
2017-02-16T05:31:13.078Z,17.76
2017-02-16T05:32:12.284Z,17.76
2017-02-16T05:33:14.812Z,17.76
2017-02-16T05:34:13.363Z,17.76
2017-02-16T05:35:14.325Z,17.76
2017-02-16T05:36:14.160Z,17.76
2017-02-16T05:37:16.298Z,17.77
2017-02-16T05:38:13.935Z,17.76
2017-02-16T05:39:12.707Z,17.77
2017-02-16T05:40:14.537Z,17.77
2017-02-16T05:41:13.715Z,17.77
2017-02-16T05:42:13.526Z,17.77
2017-02-16T05:43:12.607Z,17.77
2017-02-16T05:44:14.114Z,17.76
2017-02-16T05:45:13.778Z,17.77
2017-02-16T05:46:13.147Z,17.77
2017-02-16T05:47:13.275Z,17.77
2017-02-16T05:48:13.917Z,17.77
2017-02-16T05:49:12.486Z,17.77
2017-02-16T05:50:13.342Z,17.78
2017-02-16T05:51:13.290Z,17.77
2017-02-16T05:52:13.018Z,17.78
2017-02-16T05:53:14.878Z,17.77
2017-02-16T05:54:12.106Z,17.77
2017-02-16T05:55:14.377Z,17.77
2017-02-16T05:56:13.209Z,17.77
2017-02-16T05:57:14.278Z,17.77
2017-02-16T05:58:14.066Z,17.77
2017-02-16T05:59:12.741Z,17.77
2017-02-16T06:00:13.326Z,17.76
2017-02-16T06:01:13.315Z,17.77
2017-02-16T06:02:13.108Z,17.76
2017-02-16T06:03:14.897Z,17.76
2017-02-16T06:04:13.226Z,17.76
2017-02-16T06:05:14.187Z,17.76
2017-02-16T06:06:15.113Z,17.76
2017-02-16T06:07:13.341Z,17.76
2017-02-16T06:08:13.236Z,17.76
2017-02-16T06:09:12.947Z,17.75
2017-02-16T06:10:14.828Z,17.75
2017-02-16T06:11:12.517Z,17.75
2017-02-16T06:12:15.298Z,17.76
2017-02-16T06:13:14.307Z,17.75
2017-02-16T06:14:13.391Z,17.75
2017-02-16T06:15:14.405Z,17.76
2017-02-16T06:16:13.055Z,17.80
2017-02-16T06:17:11.325Z,17.74
2017-02-16T06:18:11.168Z,17.75
2017-02-16T06:19:14.488Z,17.75
2017-02-16T06:20:12.617Z,17.75
2017-02-16T06:21:12.305Z,17.75
2017-02-16T06:22:13.309Z,17.75
2017-02-16T06:23:10.735Z,17.75
2017-02-16T06:24:12.895Z,17.75
2017-02-16T06:25:12.601Z,17.75
2017-02-16T06:26:12.715Z,17.75
2017-02-16T06:27:14.459Z,17.75
2017-02-16T06:28:13.657Z,17.75
2017-02-16T06:29:13.306Z,17.74
2017-02-16T06:30:15.195Z,17.74
2017-02-16T06:31:13.836Z,17.75
2017-02-16T06:32:13.526Z,17.73
2017-02-16T06:33:15.445Z,17.74
2017-02-16T06:34:12.849Z,17.75
2017-02-16T06:35:13.148Z,17.75
2017-02-16T06:36:15.024Z,17.74
2017-02-16T06:37:12.018Z,17.74
2017-02-16T06:38:12.716Z,17.74
2017-02-16T06:39:11.846Z,17.74
2017-02-16T06:40:13.705Z,17.75
2017-02-16T06:41:13.246Z,17.78
2017-02-16T06:42:15.115Z,17.74
2017-02-16T06:43:13.968Z,17.74
2017-02-16T06:44:13.682Z,17.74
2017-02-16T06:45:13.080Z,17.74
2017-02-16T06:46:12.810Z,17.75
2017-02-16T06:47:12.635Z,17.74
2017-02-16T06:48:14.396Z,17.74
2017-02-16T06:49:13.022Z,17.74
2017-02-16T06:50:13.657Z,17.77
2017-02-16T06:51:13.408Z,17.74
2017-02-16T06:52:13.190Z,17.74
2017-02-16T06:53:13.230Z,17.74
2017-02-16T06:54:13.914Z,17.74
2017-02-16T06:55:12.604Z,17.74
2017-02-16T06:56:13.292Z,17.74
2017-02-16T06:57:11.075Z,17.73
2017-02-16T06:58:13.200Z,17.74
2017-02-16T06:59:12.907Z,17.74
2017-02-16T07:00:13.277Z,17.73
2017-02-16T07:01:11.851Z,17.73
2017-02-16T07:02:13.083Z,17.74
2017-02-16T07:03:12.654Z,17.74
2017-02-16T07:04:12.216Z,17.74
2017-02-16T07:05:13.938Z,17.73
2017-02-16T07:06:12.955Z,17.74
2017-02-16T07:07:12.680Z,17.73
2017-02-16T07:08:12.780Z,17.74
2017-02-16T07:09:14.100Z,17.74
2017-02-16T07:10:13.732Z,17.74
2017-02-16T07:11:13.387Z,18.27
2017-02-16T07:12:14.050Z,17.78
2017-02-16T07:13:14.869Z,17.76
2017-02-16T07:14:13.630Z,17.75
2017-02-16T07:15:13.435Z,17.74
2017-02-16T07:16:13.138Z,17.74
2017-02-16T07:17:13.920Z,17.75
2017-02-16T07:18:14.539Z,17.74
2017-02-16T07:19:13.348Z,17.75
2017-02-16T07:20:13.999Z,17.78
2017-02-16T07:21:12.570Z,18.28
2017-02-16T07:22:12.638Z,17.81
2017-02-16T07:23:12.442Z,17.78
2017-02-16T07:24:14.330Z,17.77
2017-02-16T07:25:14.908Z,17.75
2017-02-16T07:26:13.307Z,17.79
2017-02-16T07:27:13.584Z,17.73
2017-02-16T07:28:13.574Z,17.74
2017-02-16T07:29:11.587Z,17.73
2017-02-16T07:30:12.297Z,17.72
2017-02-16T07:31:13.089Z,17.71
2017-02-16T07:32:12.710Z,17.69
2017-02-16T07:33:12.525Z,17.67
2017-02-16T07:34:13.274Z,17.60
2017-02-16T07:35:14.008Z,16.78
2017-02-16T07:36:12.457Z,15.76
2017-02-16T07:37:13.459Z,14.95
2017-02-16T07:38:13.626Z,14.53
2017-02-16T07:39:13.081Z,14.10
2017-02-16T07:40:14.507Z,13.71
2017-02-16T07:41:13.444Z,13.44
2017-02-16T07:42:14.456Z,13.13
2017-02-16T07:43:13.599Z,13.39
2017-02-16T07:44:13.319Z,13.86
2017-02-16T07:45:13.651Z,14.29
2017-02-16T07:46:11.743Z,14.72
2017-02-16T07:47:12.896Z,15.09
2017-02-16T07:48:13.660Z,15.41
2017-02-16T07:49:13.513Z,15.67
2017-02-16T07:50:14.006Z,15.94
2017-02-16T07:51:12.773Z,16.07
2017-02-16T07:52:13.597Z,16.20
2017-02-16T07:53:14.309Z,16.26
2017-02-16T07:54:12.730Z,16.37
2017-02-16T07:55:13.332Z,16.51
2017-02-16T07:56:13.127Z,16.61
2017-02-16T07:57:12.705Z,16.71
2017-02-16T07:58:12.464Z,16.78
2017-02-16T07:59:13.089Z,16.88
2017-02-16T08:00:12.806Z,16.93
2017-02-16T08:01:15.408Z,17.00
2017-02-16T08:02:13.252Z,17.03
2017-02-16T08:03:13.035Z,17.06
2017-02-16T08:04:12.690Z,17.10
2017-02-16T08:05:12.437Z,17.13
2017-02-16T08:06:15.149Z,17.16
2017-02-16T08:07:13.924Z,17.19
2017-02-16T08:08:13.005Z,17.21
2017-02-16T08:09:14.828Z,17.23
2017-02-16T08:10:12.936Z,17.26
2017-02-16T08:11:14.624Z,17.28
2017-02-16T08:12:12.497Z,17.30
2017-02-16T08:13:13.377Z,17.31
2017-02-16T08:14:15.143Z,17.34
2017-02-16T08:15:12.685Z,17.35
2017-02-16T08:16:15.336Z,17.37
2017-02-16T08:17:13.261Z,17.38
2017-02-16T08:18:13.154Z,17.40
2017-02-16T08:19:13.837Z,17.40
2017-02-16T08:20:12.502Z,17.42
2017-02-16T08:21:13.097Z,17.43
2017-02-16T08:22:13.717Z,17.44
2017-02-16T08:23:13.468Z,17.45
2017-02-16T08:24:13.304Z,17.47
2017-02-16T08:25:15.088Z,17.47
2017-02-16T08:26:14.469Z,17.48
2017-02-16T08:27:12.705Z,17.49
2017-02-16T08:28:12.486Z,17.49
2017-02-16T08:29:14.117Z,17.49
2017-02-16T08:30:13.172Z,17.51
2017-02-16T08:31:13.076Z,17.51
2017-02-16T08:32:15.326Z,17.52
2017-02-16T08:33:13.146Z,17.51
2017-02-16T08:34:13.296Z,17.52
2017-02-16T08:35:13.555Z,17.52
2017-02-16T08:36:12.136Z,17.55
2017-02-16T08:37:13.307Z,17.53
2017-02-16T08:38:13.676Z,17.53
2017-02-16T08:39:13.685Z,17.53
2017-02-16T08:40:13.407Z,17.53
2017-02-16T08:41:13.050Z,17.54
2017-02-16T08:42:12.725Z,17.59
2017-02-16T08:43:14.219Z,17.54
2017-02-16T08:44:13.377Z,17.53
2017-02-16T08:45:13.330Z,17.50
2017-02-16T08:46:13.015Z,17.49
2017-02-16T08:47:12.989Z,17.50
2017-02-16T08:48:12.687Z,17.51
2017-02-16T08:49:12.672Z,17.52
2017-02-16T08:50:12.462Z,17.52
2017-02-16T08:51:13.393Z,17.54
2017-02-16T08:52:13.290Z,17.56
2017-02-16T08:53:12.952Z,17.56
2017-02-16T08:54:13.625Z,17.57
2017-02-16T08:55:12.293Z,17.57
2017-02-16T08:56:12.624Z,17.58
2017-02-16T08:57:12.159Z,17.57
2017-02-16T08:58:13.348Z,17.57
2017-02-16T08:59:13.875Z,17.56
2017-02-16T09:00:13.095Z,17.55
2017-02-16T09:01:13.135Z,17.54
2017-02-16T09:02:13.389Z,17.54
2017-02-16T09:03:14.202Z,17.54
2017-02-16T09:04:12.741Z,17.54
2017-02-16T09:05:12.450Z,17.53
2017-02-16T09:06:13.574Z,17.53
2017-02-16T09:07:12.326Z,17.54
2017-02-16T09:08:15.351Z,17.53
2017-02-16T09:09:14.180Z,17.53
2017-02-16T09:10:13.054Z,17.53
2017-02-16T09:11:12.907Z,17.53
2017-02-16T09:12:12.812Z,17.53
2017-02-16T09:13:12.716Z,17.55
2017-02-16T09:14:14.551Z,17.54
2017-02-16T09:15:11.611Z,17.54
2017-02-16T09:16:12.771Z,17.53
2017-02-16T09:17:14.695Z,17.54
2017-02-16T09:18:13.522Z,17.54
2017-02-16T09:19:13.175Z,17.55
2017-02-16T09:20:13.296Z,17.54
2017-02-16T09:21:12.512Z,17.55
2017-02-16T09:22:14.458Z,17.55
2017-02-16T09:23:13.217Z,17.56
2017-02-16T09:24:13.064Z,17.57
2017-02-16T09:25:12.283Z,17.58
2017-02-16T09:26:14.092Z,17.58
2017-02-16T09:27:13.825Z,17.59
2017-02-16T09:28:12.530Z,17.65
2017-02-16T09:29:15.239Z,17.60
2017-02-16T09:30:13.344Z,17.61
2017-02-16T09:31:14.670Z,17.61
2017-02-16T09:32:12.476Z,17.61
2017-02-16T09:33:14.648Z,17.61
2017-02-16T09:34:13.625Z,17.61
2017-02-16T09:35:13.379Z,17.64
2017-02-16T09:36:15.028Z,17.67
2017-02-16T09:37:13.644Z,17.67
2017-02-16T09:38:12.395Z,17.67
2017-02-16T09:39:13.270Z,17.67
2017-02-16T09:40:13.514Z,17.68
2017-02-16T09:41:13.114Z,17.71
2017-02-16T09:42:12.811Z,17.71
2017-02-16T09:43:13.548Z,17.72
2017-02-16T09:44:13.946Z,17.77
2017-02-16T09:45:13.996Z,17.71
2017-02-16T09:46:12.678Z,17.71
2017-02-16T09:47:12.417Z,17.76
2017-02-16T09:48:13.285Z,17.84
2017-02-16T09:49:12.482Z,17.80
2017-02-16T09:50:12.731Z,17.84
2017-02-16T09:51:11.705Z,17.84
2017-02-16T09:52:11.637Z,17.84
2017-02-16T09:53:11.784Z,17.84
2017-02-16T09:54:11.899Z,17.84
2017-02-16T09:55:12.093Z,17.83
2017-02-16T09:56:12.088Z,17.83
2017-02-16T09:57:12.808Z,17.88
2017-02-16T09:58:12.656Z,17.83
2017-02-16T09:59:11.851Z,17.82
2017-02-16T10:00:12.846Z,17.81
2017-02-16T10:01:12.647Z,17.81
2017-02-16T10:02:11.496Z,17.82
2017-02-16T10:03:12.574Z,17.82
2017-02-16T10:04:11.651Z,17.82
2017-02-16T10:05:13.805Z,17.82
2017-02-16T10:06:11.815Z,17.83
2017-02-16T10:07:14.514Z,17.86
2017-02-16T10:08:13.701Z,17.87
2017-02-16T10:09:11.912Z,17.88
2017-02-16T10:10:12.526Z,17.92
2017-02-16T10:11:13.235Z,17.90
2017-02-16T10:12:13.246Z,17.92
2017-02-16T10:13:13.286Z,18.03
2017-02-16T10:14:12.692Z,18.21
2017-02-16T10:15:12.379Z,18.23
2017-02-16T10:16:12.534Z,18.21
2017-02-16T10:17:12.793Z,18.20
2017-02-16T10:18:12.485Z,18.16
2017-02-16T10:19:12.688Z,18.11
2017-02-16T10:20:13.525Z,18.06
2017-02-16T10:21:11.429Z,18.04
2017-02-16T10:23:10.071Z,18.03
2017-02-16T10:23:12.960Z,18.03
2017-02-16T10:24:13.597Z,17.99
2017-02-16T10:25:12.472Z,17.97
2017-02-16T10:26:14.949Z,17.95
2017-02-16T10:27:12.140Z,17.96
2017-02-16T10:28:12.268Z,17.95
2017-02-16T10:29:12.946Z,17.94
2017-02-16T10:30:12.715Z,17.96
2017-02-16T10:31:11.685Z,17.97
2017-02-16T10:32:11.742Z,17.96
2017-02-16T10:33:12.474Z,17.95
2017-02-16T10:34:12.674Z,17.94
2017-02-16T10:35:12.090Z,17.96
2017-02-16T10:36:12.273Z,17.92
2017-02-16T10:37:12.815Z,17.96
2017-02-16T10:38:13.811Z,17.91
2017-02-16T10:39:11.899Z,17.90
2017-02-16T10:40:14.770Z,17.89
2017-02-16T10:41:12.686Z,17.90
2017-02-16T10:42:12.554Z,17.93
2017-02-16T10:43:12.215Z,17.88
2017-02-16T10:44:13.425Z,17.88
2017-02-16T10:45:12.904Z,17.94
2017-02-16T10:46:11.857Z,17.88
2017-02-16T10:47:10.123Z,17.87
2017-02-16T10:48:11.080Z,17.87
2017-02-16T10:49:12.230Z,18.43
2017-02-16T10:50:14.111Z,18.51
2017-02-16T10:51:12.678Z,18.54
2017-02-16T10:52:11.717Z,18.54
2017-02-16T10:53:11.834Z,18.54
2017-02-16T10:54:12.855Z,18.53
2017-02-16T10:55:11.795Z,18.55
2017-02-16T10:56:11.827Z,18.55
2017-02-16T10:57:12.078Z,18.52
2017-02-16T10:58:12.316Z,18.53
2017-02-16T10:59:12.444Z,18.53
2017-02-16T11:00:12.692Z,18.53
2017-02-16T11:01:11.775Z,18.53
2017-02-16T11:02:13.529Z,18.52
2017-02-16T11:03:11.444Z,18.51
2017-02-16T11:04:12.361Z,18.53
2017-02-16T11:05:12.379Z,18.53
2017-02-16T11:06:14.399Z,18.54
2017-02-16T11:07:12.488Z,18.19
2017-02-16T11:08:14.302Z,18.00
2017-02-16T11:09:13.963Z,17.95
2017-02-16T11:10:12.094Z,17.94
2017-02-16T11:11:12.987Z,17.92
2017-02-16T11:12:12.221Z,17.92
2017-02-16T11:13:12.272Z,17.92
2017-02-16T11:14:13.046Z,17.91
2017-02-16T11:15:14.079Z,17.91
2017-02-16T11:16:12.923Z,17.90
2017-02-16T11:17:14.785Z,17.92
2017-02-16T11:18:11.786Z,17.92
2017-02-16T11:19:12.997Z,17.96
2017-02-16T11:20:11.753Z,17.90
2017-02-16T11:21:10.795Z,17.89
2017-02-16T11:22:11.973Z,17.90
2017-02-16T11:23:12.713Z,17.90
2017-02-16T11:24:11.833Z,17.90
2017-02-16T11:25:12.677Z,17.89
2017-02-16T11:26:11.770Z,17.89
2017-02-16T11:27:10.451Z,17.88
2017-02-16T11:28:12.322Z,18.41
2017-02-16T11:29:13.351Z,17.94
2017-02-16T11:30:12.324Z,17.91
2017-02-16T11:31:12.547Z,17.89
2017-02-16T11:32:12.711Z,17.88
2017-02-16T11:33:12.367Z,17.88
2017-02-16T11:34:12.457Z,17.88
2017-02-16T11:35:13.406Z,17.90
2017-02-16T11:36:13.348Z,17.89
2017-02-16T11:37:11.184Z,17.87
2017-02-16T11:38:12.094Z,17.93
2017-02-16T11:39:12.719Z,17.87
2017-02-16T11:40:11.698Z,17.88
2017-02-16T11:41:11.817Z,17.88
2017-02-16T11:42:13.942Z,17.87
2017-02-16T11:43:12.096Z,17.88
2017-02-16T11:44:12.116Z,17.87
2017-02-16T11:45:13.141Z,17.88
2017-02-16T11:46:12.766Z,17.93
2017-02-16T11:47:12.386Z,17.92
2017-02-16T11:48:14.415Z,17.87
2017-02-16T11:49:12.367Z,17.87
2017-02-16T11:50:12.478Z,17.87
2017-02-16T11:51:14.224Z,17.87
2017-02-16T11:52:13.060Z,17.93
2017-02-16T11:53:09.667Z,17.87
2017-02-16T11:54:10.740Z,17.87
2017-02-16T11:55:12.106Z,17.87
2017-02-16T11:56:12.154Z,17.88
2017-02-16T11:57:12.940Z,17.87
2017-02-16T11:58:12.732Z,17.87
2017-02-16T11:59:11.748Z,17.88
2017-02-16T12:00:11.761Z,17.88
2017-02-16T12:01:12.292Z,17.93
2017-02-16T12:02:14.813Z,17.88
2017-02-16T12:03:12.099Z,17.88
2017-02-16T12:04:11.079Z,17.88
2017-02-16T12:05:13.027Z,17.89
2017-02-16T12:06:12.950Z,17.88
2017-02-16T12:07:12.846Z,17.89
2017-02-16T12:08:14.167Z,17.86
2017-02-16T12:09:10.661Z,17.86
2017-02-16T12:10:10.873Z,17.87
2017-02-16T12:11:11.710Z,17.88
2017-02-16T12:12:12.043Z,17.87
2017-02-16T12:13:12.221Z,17.87
2017-02-16T12:14:13.296Z,17.87
2017-02-16T12:15:12.466Z,17.87
2017-02-16T12:16:15.446Z,17.87
2017-02-16T12:17:13.063Z,17.93
2017-02-16T12:18:12.853Z,17.89
2017-02-16T12:19:12.129Z,17.87
2017-02-16T12:20:12.918Z,17.87
2017-02-16T12:21:11.834Z,17.87
2017-02-16T12:22:12.123Z,17.87
2017-02-16T12:23:12.117Z,17.87
2017-02-16T12:24:12.847Z,17.90
2017-02-16T12:25:12.577Z,17.89
2017-02-16T12:26:12.124Z,17.86
2017-02-16T12:27:12.298Z,17.86
2017-02-16T12:28:12.459Z,17.86
2017-02-16T12:29:13.491Z,17.85
2017-02-16T12:30:12.836Z,17.86
2017-02-16T12:31:11.757Z,17.86
2017-02-16T12:32:11.868Z,17.85
2017-02-16T12:33:13.582Z,17.85
2017-02-16T12:34:11.709Z,17.85
2017-02-16T12:35:12.495Z,17.86
2017-02-16T12:36:13.373Z,17.86
2017-02-16T12:37:13.688Z,17.85
2017-02-16T12:38:12.364Z,17.85
2017-02-16T12:39:12.465Z,17.86
2017-02-16T12:40:13.227Z,17.89
2017-02-16T12:41:13.157Z,17.86
2017-02-16T12:42:14.048Z,17.85
2017-02-16T12:43:12.088Z,17.85
2017-02-16T12:44:12.138Z,17.85
2017-02-16T12:45:13.067Z,17.85
2017-02-16T12:46:12.938Z,17.85
2017-02-16T12:47:11.840Z,17.85
2017-02-16T12:48:10.747Z,17.85
2017-02-16T12:49:09.699Z,17.85
2017-02-16T12:50:12.376Z,17.84
2017-02-16T12:51:12.550Z,17.85
2017-02-16T12:52:13.343Z,17.85
2017-02-16T12:53:13.625Z,17.88